Latest Weather Observations for Toowoomba

IDQ60901

Issued at 1:41 pm EST Sunday 25 September 2016 (issued every 10 minutes, with the page automatically refreshed every 10 minutes)

About weather observations | Map of Brisbane area stations | Latest observations for Brisbane area | Other Formats
Station Details ID: 041529 Name: TOOWOOMBA AIRPORT Lat: -27.54 Lon: 151.91 Height: 640.9 m
Data from the previous 72 hours. | See also: Recent months at Toowoomba
Date/Time
EST
Temp
°C
App
Temp
°C
Dew
Point
°C
Rel
Hum
%
Delta-T
°C
Wind Press
QNH
hPa
Press
MSL
hPa
Rain since
9am
mm
Dir  Spd
km/h
Gust
km/h
Spd
kts
Gust
kts
25/01:30pm 19.8 14.1 11.8 60 4.6 W 33 48 18 26 1010.0 1008.1 0.2
25/01:00pm 20.8 13.5 10.3 51 5.9 W 39 52 21 28 1010.0 1008.1 0.2
25/12:30pm 21.5 15.0 10.3 49 6.3 WNW 35 48 19 26 1010.4 1008.5 0.2
25/12:00pm 20.2 14.6 10.3 53 5.5 W 30 44 16 24 1010.6 1008.7 0.2
25/11:30am 19.8 13.9 10.5 55 5.2 W 32 44 17 24 1011.2 1009.3 0.2
25/11:00am 19.7 13.8 10.4 55 5.2 WNW 32 44 17 24 1011.4 1009.5 0.2
25/10:30am 19.9 14.3 10.0 53 5.5 WNW 30 41 16 22 1011.7 1009.9 0.2
25/10:00am 19.4 14.9 9.9 54 5.2 NW 24 33 13 18 1012.1 1010.2 0.2
25/09:30am 18.7 15.5 9.8 56 4.9 WNW 17 24 9 13 1012.1 1010.2 0.2
25/09:00am 16.9 13.6 9.6 62 3.9 NW 17 20 9 11 1012.2 1010.3 0.0
25/08:30am 15.6 13.4 9.3 66 3.4 NW 11 15 6 8 1012.3 1010.4 0.0
25/08:00am 14.9 13.5 9.7 71 2.8 WNW 7 9 4 5 1012.3 1010.4 0.0
25/07:30am 14.5 12.6 9.1 70 2.8 WNW 9 11 5 6 1012.5 1010.6 0.0
25/07:00am 13.7 11.4 9.0 73 2.5 NW 11 15 6 8 1012.6 1010.7 0.0
25/06:30am 13.0 11.5 9.1 77 2.0 W 7 9 4 5 1012.3 1010.4 0.0
25/06:00am 13.3 11.2 8.2 71 2.6 WNW 9 13 5 7 1012.2 1010.3 0.0
25/05:30am 13.7 11.1 7.7 67 3.1 NW 11 15 6 8 1012.4 1010.5 0.0
25/05:00am 13.9 11.5 7.2 64 3.4 NNW 9 11 5 6 1012.1 1010.2 0.0
25/04:30am 13.3 11.0 7.3 67 3.0 NNW 9 11 5 6 1012.0 1010.1 0.0
25/04:00am 13.7 11.8 7.7 67 3.1 NNW 7 11 4 6 1011.5 1009.6 0.0
25/03:30am 12.3 11.7 7.2 71 2.6 CALM 0 0 0 0 1011.5 1009.6 0.0
25/03:00am 12.2 10.2 7.3 72 2.5 E 7 9 4 5 1011.3 1009.4 0.0
25/02:30am 11.8 9.5 7.3 74 2.2 E 9 9 5 5 1011.3 1009.4 0.0
25/02:00am 12.1 10.2 6.8 70 2.6 ESE 6 7 3 4 1011.6 1009.7 0.0
25/01:30am 13.2 11.2 7.0 66 3.1 SE 7 9 4 5 1011.8 1010.0 0.0
25/01:00am 14.0 12.0 7.1 63 3.5 S 7 9 4 5 1012.2 1010.3 0.0
25/12:30am 13.7 11.3 7.2 65 3.3 S 9 11 5 6 1012.5 1010.6 0.0
25/12:00am 13.7 11.7 7.0 64 3.4 SE 7 7 4 4 1012.4 1010.5 0.0
 
Date/Time
EST
Temp
°C
App
Temp
°C
Dew
Point
°C
Rel
Hum
%
Delta-T
°C
Wind Press
QNH
hPa
Press
MSL
hPa
Rain since
9am
mm
Dir  Spd
km/h
Gust
km/h
Spd
kts
Gust
kts
24/11:30pm 14.1 12.1 7.2 63 3.5 SSE 7 9 4 5 1012.6 1010.7 0.0
24/11:00pm 13.9 13.3 7.2 64 3.4 CALM 0 0 0 0 1012.6 1010.7 0.0
24/10:30pm 14.4 12.6 7.2 62 3.7 S 6 7 3 4 1012.8 1010.9 0.0
24/10:00pm 14.9 12.9 7.2 60 3.9 S 7 9 4 5 1013.0 1011.1 0.0
24/09:30pm 14.9 12.8 6.7 58 4.1 SSW 7 9 4 5 1013.4 1011.6 0.0
24/09:00pm 15.3 13.1 6.3 55 4.5 SSW 7 9 4 5 1013.6 1011.7 0.0
24/08:30pm 15.5 13.4 6.5 55 4.5 S 7 7 4 4 1013.2 1011.4 0.0
24/08:00pm 15.9 14.0 6.6 54 4.7 SSW 6 6 3 3 1013.2 1011.4 0.0
24/07:30pm 16.0 13.9 6.7 54 4.7 SW 7 9 4 5 1013.2 1011.4 0.0
24/07:00pm 16.3 13.8 6.4 52 5.0 SW 9 13 5 7 1013.2 1011.4 0.0
24/06:30pm 16.8 14.4 6.9 52 5.1 W 9 11 5 6 1012.9 1011.0 0.0
24/06:00pm 17.6 14.7 6.5 48 5.7 WNW 11 15 6 8 1012.6 1010.7 0.0
24/05:30pm 19.2 15.5 6.3 43 6.6 W 15 20 8 11 1012.3 1010.4 0.0
24/05:00pm 20.1 15.6 6.1 40 7.2 W 19 28 10 15 1012.1 1010.2 0.0
24/04:30pm 20.3 15.7 6.3 40 7.3 W 20 28 11 15 1011.8 1010.0 0.0
24/04:00pm 20.8 16.4 7.4 42 7.1 WNW 20 32 11 17 1011.6 1009.7 0.0
24/03:30pm 20.5 16.6 7.2 42 7.0 WNW 17 28 9 15 1011.4 1009.5 0.0
24/03:00pm 20.4 16.0 7.4 43 6.9 WNW 20 30 11 16 1011.6 1009.7 0.0
24/02:30pm 20.3 16.4 7.0 42 7.0 WNW 17 26 9 14 1011.8 1010.0 0.0
24/02:00pm 20.4 16.1 7.1 42 7.0 WNW 19 30 10 16 1012.4 1010.5 0.0
24/01:30pm 19.6 15.2 6.7 43 6.7 WNW 19 26 10 14 1012.7 1010.8 0.0
24/01:00pm 19.1 14.8 6.9 45 6.3 WNW 19 26 10 14 1013.2 1011.4 0.0
24/12:30pm 19.8 16.9 9.7 52 5.6 WNW 15 24 8 13 1013.4 1011.6 0.0
24/12:00pm 18.5 15.0 7.3 48 5.8 W 15 22 8 12 1013.9 1012.0 0.0
24/11:30am 18.6 16.1 8.0 50 5.6 NW 11 20 6 11 1014.3 1012.4 0.0
24/11:00am 17.5 15.1 8.6 56 4.7 WNW 11 20 6 11 1014.7 1012.9 0.0
24/10:30am 16.7 15.0 9.9 64 3.7 W 9 15 5 8 1015.0 1013.2 0.0
24/10:00am 16.1 13.8 10.6 70 3.0 SW 13 20 7 11 1015.4 1013.5 0.0
24/09:30am 15.6 13.4 10.8 73 2.6 WSW 13 19 7 10 1015.8 1014.0 0.0
24/09:00am 14.5 11.6 9.5 72 2.7 WSW 15 19 8 10 1016.1 1014.3 0.0
24/08:30am 14.0 11.1 9.6 75 2.3 WSW 15 19 8 10 1016.0 1014.2 0.0
24/08:00am 13.0 10.3 8.9 76 2.1 WSW 13 17 7 9 1015.7 1013.8 0.0
24/07:30am 11.6 9.9 8.5 81 1.6 W 7 9 4 5 1015.6 1013.7 0.0
24/07:00am 10.3 8.1 7.9 85 1.2 W 9 11 5 6 1015.4 1013.5 0.0
24/06:30am 9.1 6.9 8.0 93 0.5 WNW 9 9 5 5 1015.1 1013.3 0.0
24/06:00am 8.1 6.1 7.0 93 0.5 WNW 7 9 4 5 1014.8 1013.0 0.0
24/05:30am 8.0 6.0 6.9 93 0.5 W 7 9 4 5 1014.5 1012.7 0.0
24/05:00am 7.8 5.3 6.6 92 0.6 W 9 9 5 5 1014.1 1012.2 0.0
24/04:30am 8.6 5.8 7.1 90 0.7 WNW 11 11 6 6 1013.9 1012.0 0.0
24/04:00am 9.9 7.2 7.3 84 1.3 SW 11 13 6 7 1013.3 1011.5 0.0
24/03:30am 10.5 7.5 7.6 82 1.4 SSW 13 15 7 8 1013.0 1011.1 0.0
24/03:00am 10.5 7.1 7.6 82 1.4 SSW 15 19 8 10 1013.1 1011.3 0.0
24/02:30am 10.0 6.9 7.4 84 1.3 SSW 13 19 7 10 1013.6 1011.7 0.0
24/02:00am 10.4 7.4 7.5 82 1.4 SSW 13 17 7 9 1013.7 1011.8 0.0
24/01:30am 10.2 7.1 7.1 81 1.5 SSW 13 15 7 8 1014.1 1012.2 0.0
24/01:00am 10.8 7.4 7.5 80 1.6 SSW 15 20 8 11 1014.3 1012.4 0.0
24/12:30am 10.5 7.4 7.2 80 1.6 SW 13 17 7 9 1014.6 1012.8 0.0
24/12:00am 11.1 7.6 7.4 78 1.8 SW 15 20 8 11 1014.7 1012.9 0.0
 
Date/Time
EST
Temp
°C
App
Temp
°C
Dew
Point
°C
Rel
Hum
%
Delta-T
°C
Wind Press
QNH
hPa
Press
MSL
hPa
Rain since
9am
mm
Dir  Spd
km/h
Gust
km/h
Spd
kts
Gust
kts
23/11:30pm 11.2 7.8 7.5 78 1.8 SSW 15 19 8 10 1014.6 1012.8 0.0
23/11:00pm 10.4 8.0 7.1 80 1.6 SW 9 13 5 7 1014.7 1012.9 0.0
23/10:30pm 10.5 7.4 7.4 81 1.5 WSW 13 15 7 8 1014.9 1013.1 0.0
23/10:00pm 10.7 8.3 7.2 79 1.7 SW 9 13 5 7 1014.9 1013.1 0.0
23/09:30pm 11.3 9.0 7.4 77 1.9 WSW 9 13 5 7 1015.3 1013.4 0.0
23/09:00pm 11.5 8.8 7.4 76 2.0 WSW 11 15 6 8 1015.3 1013.4 0.0
23/08:30pm 12.1 9.5 7.6 74 2.3 W 11 15 6 8 1015.1 1013.3 0.0
23/08:00pm 11.7 9.4 7.4 75 2.2 W 9 13 5 7 1015.0 1013.2 0.0
23/07:30pm 12.0 8.5 7.3 73 2.4 WSW 15 19 8 10 1014.8 1013.0 0.0
23/07:00pm 13.0 9.6 7.7 70 2.7 WSW 15 19 8 10 1014.6 1012.8 0.0
23/06:30pm 13.0 10.0 7.5 69 2.8 WSW 13 17 7 9 1014.2 1012.3 0.0
23/06:00pm 14.3 10.1 7.4 63 3.5 WSW 19 26 10 14 1013.7 1011.8 0.0
23/05:30pm 15.2 10.1 7.5 60 4.0 WSW 24 32 13 17 1013.2 1011.4 0.0
23/05:00pm 16.0 10.5 7.5 57 4.4 WSW 26 33 14 18 1013.0 1011.1 0.0
23/04:30pm 16.7 11.5 7.1 53 4.9 WSW 24 32 13 17 1012.8 1010.9 0.0
23/04:00pm 17.0 11.1 7.4 53 5.0 WSW 28 37 15 20 1012.7 1010.8 0.0
23/03:30pm 17.3 11.3 7.1 51 5.3 SW 28 35 15 19 1012.7 1010.8 0.0
23/03:00pm 17.1 11.2 7.5 53 5.0 WSW 28 39 15 21 1012.7 1010.8 0.0
23/02:30pm 17.2 10.8 7.0 51 5.3 WSW 30 39 16 21 1012.9 1011.0 0.0
23/02:00pm 17.2 10.5 7.3 52 5.1 WSW 32 43 17 23 1013.1 1011.3 0.0
23/01:30pm 17.2 10.9 7.3 52 5.1 WSW 30 41 16 22 1013.2 1011.4 0.0
23/01:00pm 16.6 10.5 6.7 52 5.0 WSW 28 37 15 20 1013.7 1011.8 0.0
23/12:30pm 16.1 9.9 6.0 51 5.1 WSW 28 39 15 21 1014.0 1012.1 0.0
23/12:00pm 15.4 9.2 6.2 54 4.6 WSW 28 37 15 20 1014.3 1012.4 0.0
23/11:30am 15.3 9.5 6.3 55 4.5 WSW 26 33 14 18 1014.7 1012.9 0.0
23/11:00am 14.7 8.4 5.8 55 4.4 WSW 28 39 15 21 1015.0 1013.2 0.0
23/10:30am 14.3 8.1 6.2 58 4.0 WSW 28 37 15 20 1015.3 1013.4 0.0
23/10:00am 14.0 8.0 5.1 55 4.3 WSW 26 37 14 20 1015.7 1013.8 0.0
23/09:30am 13.3 7.8 5.9 61 3.6 WSW 24 33 13 18 1015.9 1014.1 0.0
23/09:00am 12.9 8.1 5.6 61 3.5 SW 20 28 11 15 1015.9 1014.1 0.0
23/08:30am 11.7 7.3 6.6 71 2.5 WSW 19 28 10 15 1015.8 1014.0 0.0
23/08:00am 9.7 5.1 8.3 91 0.7 WSW 22 30 12 16 1015.8 1014.0 0.0
23/07:52am 9.2 5.1 7.8 91 0.7 WSW 19 26 10 14 1015.8 1014.0 0.0
23/07:30am 8.4 5.5 8.3 99 0.0 WSW 13 19 7 10 1015.5 1013.6 0.0
23/07:17am 7.9 4.2 7.8 99 0.0 SW 17 22 9 12 1015.3 1013.4 0.0
23/07:00am 7.5 3.7 7.4 99 0.0 WSW 17 24 9 13 1015.0 1013.2 0.0
23/06:30am 7.4 3.9 7.3 99 0.0 WSW 15 20 8 11 1014.6 1012.8 0.0
23/06:09am 7.5 4.4 7.4 99 0.0 WSW 13 19 7 10 1014.4 1012.5 0.0
23/06:00am 7.6 3.8 7.5 99 0.0 W 17 22 9 12 1014.4 1012.5 0.0
23/05:30am 7.6 3.4 7.5 99 0.0 W 19 26 10 14 1014.1 1012.2 0.0
23/05:00am 7.7 3.9 7.6 99 0.0 W 17 22 9 12 1013.9 1012.0 0.0
23/04:58am 7.7 3.9 7.6 99 0.0 W 17 20 9 11 1013.9 1012.0 0.0
23/04:30am 7.5 3.7 7.4 99 0.0 WSW 17 22 9 12 1013.7 1011.8 0.0
23/04:00am 7.7 3.5 7.4 98 0.1 WSW 19 26 10 14 1013.4 1011.6 0.0
23/03:30am 8.0 3.6 7.6 97 0.2 WSW 20 26 11 14 1013.3 1011.5 0.0
23/03:00am 8.3 4.2 7.7 96 0.3 W 19 24 10 13 1013.6 1011.7 0.0
23/02:30am 8.4 4.6 7.6 95 0.4 WSW 17 22 9 12 1013.9 1012.0 0.0
23/02:00am 8.8 4.7 7.7 93 0.5 WSW 19 22 10 12 1014.2 1012.3 0.0
23/01:30am 8.9 5.1 7.7 92 0.6 WSW 17 22 9 12 1014.4 1012.5 0.0
23/01:00am 9.3 5.2 7.7 90 0.8 WSW 19 26 10 14 1014.6 1012.8 0.0
23/12:30am 9.5 5.4 7.8 89 0.8 WSW 19 24 10 13 1014.8 1013.0 0.0
23/12:00am 9.8 5.6 7.6 86 1.1 WSW 19 28 10 15 1015.3 1013.4 0.0
 
Date/Time
EST
Temp
°C
App
Temp
°C
Dew
Point
°C
Rel
Hum
%
Delta-T
°C
Wind Press
QNH
hPa
Press
MSL
hPa
Rain since
9am
mm
Dir  Spd
km/h
Gust
km/h
Spd
kts
Gust
kts
22/11:30pm 10.3 6.0 7.7 84 1.3 WSW 20 26 11 14 1015.3 1013.4 0.0
22/11:00pm 10.5 6.4 7.9 84 1.3 WSW 19 24 10 13 1015.4 1013.5 0.0
22/10:30pm 10.9 6.9 8.1 83 1.4 WSW 19 26 10 14 1015.3 1013.4 0.0
22/10:00pm 11.1 6.9 8.1 82 1.5 WSW 20 30 11 16 1015.5 1013.6 0.0
22/09:30pm 10.8 6.6 8.2 84 1.3 WSW 20 26 11 14 1015.5 1013.6 0.0
22/09:00pm 11.5 7.3 8.2 80 1.7 WSW 20 26 11 14 1015.6 1013.7 0.0
22/08:30pm 12.2 7.2 7.9 75 2.2 W 24 30 13 16 1015.5 1013.6 0.0
22/08:00pm 12.6 7.6 7.9 73 2.4 WSW 24 30 13 16 1015.4 1013.5 0.0
22/07:30pm 12.7 8.1 8.2 74 2.3 WSW 22 28 12 15 1015.4 1013.5 0.0
22/07:00pm 12.7 8.4 7.8 72 2.5 WSW 20 28 11 15 1015.0 1013.2 0.0
22/06:30pm 13.0 8.7 7.7 70 2.7 WSW 20 28 11 15 1014.7 1012.9 0.0
22/06:00pm 13.6 8.9 7.6 67 3.1 WSW 22 30 12 16 1014.4 1012.5 0.0
22/05:30pm 14.2 9.0 7.3 63 3.5 WSW 24 32 13 17 1014.1 1012.2 0.0
22/05:00pm 15.6 9.2 7.1 57 4.3 WSW 30 39 16 21 1013.7 1011.8 0.0
22/04:30pm 16.0 9.5 6.7 54 4.7 WSW 30 41 16 22 1013.2 1011.4 0.0
22/04:00pm 17.0 9.8 5.9 48 5.6 WSW 33 44 18 24 1012.9 1011.0 0.0
22/03:30pm 16.5 9.4 6.6 52 5.0 WSW 33 48 18 26 1012.8 1010.9 0.0
22/03:00pm 16.1 9.2 7.3 56 4.5 WSW 33 48 18 26 1012.7 1010.8 0.0
22/02:30pm 17.4 10.6 7.7 53 5.1 WSW 33 46 18 25 1012.7 1010.8 0.0
22/02:00pm 17.4 10.2 7.5 52 5.2 WSW 35 48 19 26 1012.9 1011.0 0.0

Latest Capital City Observations: Canberra | Sydney | Melbourne | Brisbane | Adelaide | Perth | Hobart | Darwin

Other Formats:

Comma delimited format used in spreadsheet applications
http://www.bom.gov.au/fwo/IDQ60901/IDQ60901.95551.axf

JavaScript Object Notation format (JSON) in row-major order
http://www.bom.gov.au/fwo/IDQ60901/IDQ60901.95551.json